sensor_id;sensor_type;location;lat;lon;timestamp;P1;durP1;ratioP1;P2;durP2;ratioP2
23782;SDS011;12071;50.850;4.446;2022-10-29T00:00:20;21.77;;;9.05;;
23782;SDS011;12071;50.850;4.446;2022-10-29T00:02:46;21.38;;;8.80;;
23782;SDS011;12071;50.850;4.446;2022-10-29T00:05:11;15.70;;;8.73;;
23782;SDS011;12071;50.850;4.446;2022-10-29T00:07:37;18.85;;;8.27;;
23782;SDS011;12071;50.850;4.446;2022-10-29T00:10:03;21.92;;;9.00;;
23782;SDS011;12071;50.850;4.446;2022-10-29T00:12:29;24.50;;;8.50;;
23782;SDS011;12071;50.850;4.446;2022-10-29T00:14:54;19.52;;;8.80;;
23782;SDS011;12071;50.850;4.446;2022-10-29T00:17:20;22.92;;;9.05;;
23782;SDS011;12071;50.850;4.446;2022-10-29T00:19:45;24.08;;;9.30;;
23782;SDS011;12071;50.850;4.446;2022-10-29T00:22:11;17.58;;;9.25;;
23782;SDS011;12071;50.850;4.446;2022-10-29T00:24:36;29.05;;;9.85;;
23782;SDS011;12071;50.850;4.446;2022-10-29T00:27:02;19.13;;;9.30;;
23782;SDS011;12071;50.850;4.446;2022-10-29T00:29:28;22.08;;;8.77;;
23782;SDS011;12071;50.850;4.446;2022-10-29T00:31:53;18.15;;;8.80;;
23782;SDS011;12071;50.850;4.446;2022-10-29T00:34:19;21.00;;;9.20;;
23782;SDS011;12071;50.850;4.446;2022-10-29T00:36:44;23.30;;;9.80;;
23782;SDS011;12071;50.850;4.446;2022-10-29T00:39:16;19.85;;;8.82;;
23782;SDS011;12071;50.850;4.446;2022-10-29T00:41:42;19.08;;;9.00;;
23782;SDS011;12071;50.850;4.446;2022-10-29T00:47:00;23.73;;;10.38;;
23782;SDS011;12071;50.850;4.446;2022-10-29T00:49:42;21.25;;;10.07;;
23782;SDS011;12071;50.850;4.446;2022-10-29T00:52:11;24.67;;;9.55;;
23782;SDS011;12071;50.850;4.446;2022-10-29T00:54:38;20.38;;;10.23;;
23782;SDS011;12071;50.850;4.446;2022-10-29T00:57:27;22.02;;;9.15;;
23782;SDS011;12071;50.850;4.446;2022-10-29T00:59:55;23.23;;;9.88;;
23782;SDS011;12071;50.850;4.446;2022-10-29T01:02:21;23.05;;;9.35;;
23782;SDS011;12071;50.850;4.446;2022-10-29T01:04:47;19.63;;;9.48;;
23782;SDS011;12071;50.850;4.446;2022-10-29T01:07:14;23.15;;;10.00;;
23782;SDS011;12071;50.850;4.446;2022-10-29T01:09:40;21.30;;;9.93;;
23782;SDS011;12071;50.850;4.446;2022-10-29T01:12:10;20.17;;;9.43;;
23782;SDS011;12071;50.850;4.446;2022-10-29T01:17:35;21.23;;;9.40;;
23782;SDS011;12071;50.850;4.446;2022-10-29T01:31:47;20.17;;;9.20;;
23782;SDS011;12071;50.850;4.446;2022-10-29T01:37:10;17.30;;;8.32;;
23782;SDS011;12071;50.850;4.446;2022-10-29T01:42:34;18.85;;;8.77;;
23782;SDS011;12071;50.850;4.446;2022-10-29T01:45:16;20.95;;;8.75;;
23782;SDS011;12071;50.850;4.446;2022-10-29T01:47:43;16.45;;;8.57;;
23782;SDS011;12071;50.850;4.446;2022-10-29T01:50:13;20.25;;;9.18;;
23782;SDS011;12071;50.850;4.446;2022-10-29T01:52:43;20.27;;;8.60;;
23782;SDS011;12071;50.850;4.446;2022-10-29T01:55:10;24.85;;;9.35;;
23782;SDS011;12071;50.850;4.446;2022-10-29T01:57:47;18.25;;;9.18;;
23782;SDS011;12071;50.850;4.446;2022-10-29T02:00:16;25.27;;;9.18;;
23782;SDS011;12071;50.850;4.446;2022-10-29T02:12:57;18.33;;;9.40;;
23782;SDS011;12071;50.850;4.446;2022-10-29T02:18:00;17.90;;;9.02;;
23782;SDS011;12071;50.850;4.446;2022-10-29T02:20:29;22.15;;;8.75;;
23782;SDS011;12071;50.850;4.446;2022-10-29T02:22:54;21.88;;;8.68;;
23782;SDS011;12071;50.850;4.446;2022-10-29T02:25:20;22.98;;;9.75;;
23782;SDS011;12071;50.850;4.446;2022-10-29T02:27:46;24.73;;;9.32;;
23782;SDS011;12071;50.850;4.446;2022-10-29T02:30:12;25.20;;;9.43;;
23782;SDS011;12071;50.850;4.446;2022-10-29T02:32:37;23.20;;;9.40;;
23782;SDS011;12071;50.850;4.446;2022-10-29T02:35:03;19.48;;;8.82;;
23782;SDS011;12071;50.850;4.446;2022-10-29T02:37:29;26.05;;;8.85;;
23782;SDS011;12071;50.850;4.446;2022-10-29T02:39:55;19.90;;;8.70;;
23782;SDS011;12071;50.850;4.446;2022-10-29T02:42:20;20.48;;;8.63;;
23782;SDS011;12071;50.850;4.446;2022-10-29T02:44:46;16.35;;;8.73;;
23782;SDS011;12071;50.850;4.446;2022-10-29T02:47:12;21.35;;;9.20;;
23782;SDS011;12071;50.850;4.446;2022-10-29T02:49:37;24.02;;;9.50;;
23782;SDS011;12071;50.850;4.446;2022-10-29T02:52:03;20.65;;;8.23;;
23782;SDS011;12071;50.850;4.446;2022-10-29T02:54:29;14.90;;;8.40;;
23782;SDS011;12071;50.850;4.446;2022-10-29T02:56:54;16.98;;;7.70;;
23782;SDS011;12071;50.850;4.446;2022-10-29T02:59:20;14.85;;;8.20;;
23782;SDS011;12071;50.850;4.446;2022-10-29T03:01:45;15.27;;;7.82;;
23782;SDS011;12071;50.850;4.446;2022-10-29T03:04:11;17.90;;;8.43;;
23782;SDS011;12071;50.850;4.446;2022-10-29T03:06:37;16.77;;;7.97;;
23782;SDS011;12071;50.850;4.446;2022-10-29T03:09:02;18.23;;;8.95;;
23782;SDS011;12071;50.850;4.446;2022-10-29T03:11:28;19.02;;;8.15;;
23782;SDS011;12071;50.850;4.446;2022-10-29T03:13:54;17.10;;;7.97;;
23782;SDS011;12071;50.850;4.446;2022-10-29T03:16:20;19.42;;;7.63;;
23782;SDS011;12071;50.850;4.446;2022-10-29T03:18:45;21.02;;;8.77;;
23782;SDS011;12071;50.850;4.446;2022-10-29T03:21:11;21.77;;;9.90;;
23782;SDS011;12071;50.850;4.446;2022-10-29T03:23:36;20.55;;;9.23;;
23782;SDS011;12071;50.850;4.446;2022-10-29T03:26:02;20.15;;;8.60;;
23782;SDS011;12071;50.850;4.446;2022-10-29T03:28:28;23.60;;;9.73;;
23782;SDS011;12071;50.850;4.446;2022-10-29T03:30:54;16.85;;;9.23;;
23782;SDS011;12071;50.850;4.446;2022-10-29T03:33:21;20.73;;;8.38;;
23782;SDS011;12071;50.850;4.446;2022-10-29T03:35:47;20.02;;;9.05;;
23782;SDS011;12071;50.850;4.446;2022-10-29T03:38:13;20.27;;;9.50;;
23782;SDS011;12071;50.850;4.446;2022-10-29T03:40:38;24.13;;;9.10;;
23782;SDS011;12071;50.850;4.446;2022-10-29T03:43:04;22.15;;;9.27;;
23782;SDS011;12071;50.850;4.446;2022-10-29T03:45:29;19.00;;;9.43;;
23782;SDS011;12071;50.850;4.446;2022-10-29T03:47:55;21.88;;;9.57;;
23782;SDS011;12071;50.850;4.446;2022-10-29T03:50:21;22.30;;;9.10;;
23782;SDS011;12071;50.850;4.446;2022-10-29T03:52:46;17.15;;;8.65;;
23782;SDS011;12071;50.850;4.446;2022-10-29T03:55:12;20.98;;;9.68;;
23782;SDS011;12071;50.850;4.446;2022-10-29T03:57:37;19.77;;;8.98;;
23782;SDS011;12071;50.850;4.446;2022-10-29T04:00:03;17.38;;;9.27;;
23782;SDS011;12071;50.850;4.446;2022-10-29T04:02:29;19.67;;;9.77;;
23782;SDS011;12071;50.850;4.446;2022-10-29T04:04:55;20.85;;;9.80;;
23782;SDS011;12071;50.850;4.446;2022-10-29T04:07:20;22.40;;;9.65;;
23782;SDS011;12071;50.850;4.446;2022-10-29T04:09:46;22.35;;;9.50;;
23782;SDS011;12071;50.850;4.446;2022-10-29T04:12:12;24.10;;;9.77;;
23782;SDS011;12071;50.850;4.446;2022-10-29T04:14:37;21.75;;;9.75;;
23782;SDS011;12071;50.850;4.446;2022-10-29T04:17:03;20.63;;;10.07;;
23782;SDS011;12071;50.850;4.446;2022-10-29T04:19:28;21.67;;;10.13;;
23782;SDS011;12071;50.850;4.446;2022-10-29T04:21:54;21.50;;;9.73;;
23782;SDS011;12071;50.850;4.446;2022-10-29T04:24:19;17.88;;;8.60;;
23782;SDS011;12071;50.850;4.446;2022-10-29T04:26:45;23.23;;;9.77;;
23782;SDS011;12071;50.850;4.446;2022-10-29T04:29:10;22.65;;;9.90;;
23782;SDS011;12071;50.850;4.446;2022-10-29T04:31:36;24.58;;;10.65;;
23782;SDS011;12071;50.850;4.446;2022-10-29T04:34:02;20.63;;;10.27;;
23782;SDS011;12071;50.850;4.446;2022-10-29T04:36:28;18.30;;;10.98;;
23782;SDS011;12071;50.850;4.446;2022-10-29T04:38:54;22.58;;;10.35;;
23782;SDS011;12071;50.850;4.446;2022-10-29T04:41:19;27.45;;;10.13;;
23782;SDS011;12071;50.850;4.446;2022-10-29T04:43:45;19.83;;;9.80;;
23782;SDS011;12071;50.850;4.446;2022-10-29T04:46:10;22.73;;;9.77;;
23782;SDS011;12071;50.850;4.446;2022-10-29T04:48:36;21.48;;;9.75;;
23782;SDS011;12071;50.850;4.446;2022-10-29T04:51:02;23.38;;;9.95;;
23782;SDS011;12071;50.850;4.446;2022-10-29T04:53:28;22.10;;;10.40;;
23782;SDS011;12071;50.850;4.446;2022-10-29T04:55:57;24.60;;;9.60;;
23782;SDS011;12071;50.850;4.446;2022-10-29T04:58:25;23.38;;;9.88;;
23782;SDS011;12071;50.850;4.446;2022-10-29T05:00:51;18.35;;;9.45;;
23782;SDS011;12071;50.850;4.446;2022-10-29T05:03:16;19.70;;;8.85;;
23782;SDS011;12071;50.850;4.446;2022-10-29T05:05:42;21.25;;;9.75;;
23782;SDS011;12071;50.850;4.446;2022-10-29T05:08:08;21.83;;;9.43;;
23782;SDS011;12071;50.850;4.446;2022-10-29T05:10:36;27.48;;;10.20;;
23782;SDS011;12071;50.850;4.446;2022-10-29T05:13:04;21.67;;;9.02;;
23782;SDS011;12071;50.850;4.446;2022-10-29T05:15:32;19.08;;;9.38;;
23782;SDS011;12071;50.850;4.446;2022-10-29T05:17:58;19.70;;;9.77;;
23782;SDS011;12071;50.850;4.446;2022-10-29T05:20:24;23.08;;;9.35;;
23782;SDS011;12071;50.850;4.446;2022-10-29T05:22:56;23.38;;;9.82;;
23782;SDS011;12071;50.850;4.446;2022-10-29T05:25:23;18.52;;;9.40;;
23782;SDS011;12071;50.850;4.446;2022-10-29T05:27:49;23.73;;;10.30;;
23782;SDS011;12071;50.850;4.446;2022-10-29T05:30:14;19.77;;;10.23;;
23782;SDS011;12071;50.850;4.446;2022-10-29T05:32:40;21.02;;;10.80;;
23782;SDS011;12071;50.850;4.446;2022-10-29T05:35:06;23.92;;;10.23;;
23782;SDS011;12071;50.850;4.446;2022-10-29T05:37:31;22.23;;;10.77;;
23782;SDS011;12071;50.850;4.446;2022-10-29T05:39:57;21.73;;;10.50;;
23782;SDS011;12071;50.850;4.446;2022-10-29T05:42:22;18.00;;;9.70;;
23782;SDS011;12071;50.850;4.446;2022-10-29T05:44:48;21.75;;;9.23;;
23782;SDS011;12071;50.850;4.446;2022-10-29T05:47:14;24.48;;;9.00;;
23782;SDS011;12071;50.850;4.446;2022-10-29T05:49:39;18.20;;;9.70;;
23782;SDS011;12071;50.850;4.446;2022-10-29T05:52:05;14.65;;;8.98;;
23782;SDS011;12071;50.850;4.446;2022-10-29T05:54:30;17.58;;;9.82;;
23782;SDS011;12071;50.850;4.446;2022-10-29T05:56:57;17.63;;;9.80;;
23782;SDS011;12071;50.850;4.446;2022-10-29T05:59:22;21.13;;;9.15;;
23782;SDS011;12071;50.850;4.446;2022-10-29T06:01:48;21.40;;;10.23;;
23782;SDS011;12071;50.850;4.446;2022-10-29T06:04:13;20.23;;;9.77;;
23782;SDS011;12071;50.850;4.446;2022-10-29T06:06:39;19.70;;;9.32;;
23782;SDS011;12071;50.850;4.446;2022-10-29T06:09:05;17.60;;;9.95;;
23782;SDS011;12071;50.850;4.446;2022-10-29T06:11:30;20.60;;;10.73;;
23782;SDS011;12071;50.850;4.446;2022-10-29T06:13:56;27.88;;;9.48;;
23782;SDS011;12071;50.850;4.446;2022-10-29T06:16:21;22.65;;;10.32;;
23782;SDS011;12071;50.850;4.446;2022-10-29T06:18:47;23.38;;;10.55;;
23782;SDS011;12071;50.850;4.446;2022-10-29T06:21:13;28.25;;;10.38;;
23782;SDS011;12071;50.850;4.446;2022-10-29T06:23:39;19.63;;;9.80;;
23782;SDS011;12071;50.850;4.446;2022-10-29T06:26:04;20.42;;;10.02;;
23782;SDS011;12071;50.850;4.446;2022-10-29T06:28:30;19.67;;;10.10;;
23782;SDS011;12071;50.850;4.446;2022-10-29T06:30:56;20.13;;;9.63;;
23782;SDS011;12071;50.850;4.446;2022-10-29T06:33:21;19.58;;;10.25;;
23782;SDS011;12071;50.850;4.446;2022-10-29T06:35:47;21.42;;;10.70;;
23782;SDS011;12071;50.850;4.446;2022-10-29T06:38:12;23.38;;;11.25;;
23782;SDS011;12071;50.850;4.446;2022-10-29T06:40:39;20.15;;;9.77;;
23782;SDS011;12071;50.850;4.446;2022-10-29T06:43:06;22.30;;;10.07;;
23782;SDS011;12071;50.850;4.446;2022-10-29T06:45:33;28.92;;;10.10;;
23782;SDS011;12071;50.850;4.446;2022-10-29T06:47:59;19.50;;;9.73;;
23782;SDS011;12071;50.850;4.446;2022-10-29T06:50:25;24.58;;;9.57;;
23782;SDS011;12071;50.850;4.446;2022-10-29T06:52:55;28.60;;;9.88;;
23782;SDS011;12071;50.850;4.446;2022-10-29T06:55:25;21.02;;;9.93;;
23782;SDS011;12071;50.850;4.446;2022-10-29T06:57:55;22.73;;;10.25;;
23782;SDS011;12071;50.850;4.446;2022-10-29T07:00:22;25.33;;;10.43;;
23782;SDS011;12071;50.850;4.446;2022-10-29T07:02:48;20.08;;;9.52;;
23782;SDS011;12071;50.850;4.446;2022-10-29T07:05:13;20.92;;;9.60;;
23782;SDS011;12071;50.850;4.446;2022-10-29T07:07:39;23.10;;;9.55;;
23782;SDS011;12071;50.850;4.446;2022-10-29T07:10:05;17.88;;;9.98;;
23782;SDS011;12071;50.850;4.446;2022-10-29T07:12:30;15.48;;;9.23;;
23782;SDS011;12071;50.850;4.446;2022-10-29T07:14:56;15.35;;;8.73;;
23782;SDS011;12071;50.850;4.446;2022-10-29T07:17:21;17.55;;;8.90;;
23782;SDS011;12071;50.850;4.446;2022-10-29T07:19:47;16.80;;;7.78;;
23782;SDS011;12071;50.850;4.446;2022-10-29T07:22:12;16.98;;;8.15;;
23782;SDS011;12071;50.850;4.446;2022-10-29T07:24:38;20.30;;;9.00;;
23782;SDS011;12071;50.850;4.446;2022-10-29T07:27:04;17.23;;;8.48;;
23782;SDS011;12071;50.850;4.446;2022-10-29T07:29:31;21.08;;;8.80;;
23782;SDS011;12071;50.850;4.446;2022-10-29T07:31:56;15.85;;;8.25;;
23782;SDS011;12071;50.850;4.446;2022-10-29T07:34:22;19.00;;;8.45;;
23782;SDS011;12071;50.850;4.446;2022-10-29T07:36:47;16.73;;;7.78;;
23782;SDS011;12071;50.850;4.446;2022-10-29T07:39:13;18.27;;;8.25;;
23782;SDS011;12071;50.850;4.446;2022-10-29T07:41:38;15.27;;;7.85;;
23782;SDS011;12071;50.850;4.446;2022-10-29T07:44:04;14.25;;;7.05;;
23782;SDS011;12071;50.850;4.446;2022-10-29T07:46:29;21.02;;;7.20;;
23782;SDS011;12071;50.850;4.446;2022-10-29T07:48:55;19.83;;;7.50;;
23782;SDS011;12071;50.850;4.446;2022-10-29T07:51:20;21.77;;;7.97;;
23782;SDS011;12071;50.850;4.446;2022-10-29T07:53:46;19.38;;;7.20;;
23782;SDS011;12071;50.850;4.446;2022-10-29T07:56:12;15.85;;;6.55;;
23782;SDS011;12071;50.850;4.446;2022-10-29T07:58:37;16.73;;;6.90;;
23782;SDS011;12071;50.850;4.446;2022-10-29T08:01:03;12.57;;;6.20;;
23782;SDS011;12071;50.850;4.446;2022-10-29T08:03:28;17.42;;;6.43;;
23782;SDS011;12071;50.850;4.446;2022-10-29T08:05:57;13.95;;;6.35;;
23782;SDS011;12071;50.850;4.446;2022-10-29T08:08:23;17.95;;;6.63;;
23782;SDS011;12071;50.850;4.446;2022-10-29T08:10:49;14.27;;;5.78;;
23782;SDS011;12071;50.850;4.446;2022-10-29T08:13:14;20.35;;;6.78;;
23782;SDS011;12071;50.850;4.446;2022-10-29T08:15:40;14.35;;;5.93;;
23782;SDS011;12071;50.850;4.446;2022-10-29T08:18:09;16.42;;;6.53;;
23782;SDS011;12071;50.850;4.446;2022-10-29T08:20:38;17.50;;;6.25;;
23782;SDS011;12071;50.850;4.446;2022-10-29T08:23:04;16.42;;;5.82;;
23782;SDS011;12071;50.850;4.446;2022-10-29T08:25:29;17.98;;;6.10;;
23782;SDS011;12071;50.850;4.446;2022-10-29T08:28:02;15.48;;;5.63;;
23782;SDS011;12071;50.850;4.446;2022-10-29T08:30:29;17.33;;;5.72;;
23782;SDS011;12071;50.850;4.446;2022-10-29T08:32:56;16.85;;;5.70;;
23782;SDS011;12071;50.850;4.446;2022-10-29T08:35:22;19.42;;;5.82;;
23782;SDS011;12071;50.850;4.446;2022-10-29T08:37:47;16.00;;;4.63;;
23782;SDS011;12071;50.850;4.446;2022-10-29T08:42:54;11.40;;;4.70;;
23782;SDS011;12071;50.850;4.446;2022-10-29T08:45:23;17.08;;;5.70;;
23782;SDS011;12071;50.850;4.446;2022-10-29T08:48:10;17.63;;;5.80;;
23782;SDS011;12071;50.850;4.446;2022-10-29T08:50:59;16.40;;;5.18;;
23782;SDS011;12071;50.850;4.446;2022-10-29T08:53:42;17.40;;;5.35;;
23782;SDS011;12071;50.850;4.446;2022-10-29T08:56:17;14.82;;;4.80;;
23782;SDS011;12071;50.850;4.446;2022-10-29T08:58:59;15.38;;;4.80;;
23782;SDS011;12071;50.850;4.446;2022-10-29T09:01:43;15.82;;;5.13;;
23782;SDS011;12071;50.850;4.446;2022-10-29T09:04:51;16.67;;;5.40;;
23782;SDS011;12071;50.850;4.446;2022-10-29T09:09:55;13.93;;;4.70;;
23782;SDS011;12071;50.850;4.446;2022-10-29T09:23:09;14.30;;;4.18;;
23782;SDS011;12071;50.850;4.446;2022-10-29T09:31:07;15.23;;;5.27;;
23782;SDS011;12071;50.850;4.446;2022-10-29T09:33:40;14.38;;;5.13;;
23782;SDS011;12071;50.850;4.446;2022-10-29T09:36:24;17.02;;;4.80;;
23782;SDS011;12071;50.850;4.446;2022-10-29T09:38:52;15.85;;;5.43;;
23782;SDS011;12071;50.850;4.446;2022-10-29T09:41:20;13.93;;;4.90;;
23782;SDS011;12071;50.850;4.446;2022-10-29T09:43:51;20.85;;;5.18;;
23782;SDS011;12071;50.850;4.446;2022-10-29T09:52:06;16.67;;;6.47;;
23782;SDS011;12071;50.850;4.446;2022-10-29T09:55:02;20.85;;;7.38;;
23782;SDS011;12071;50.850;4.446;2022-10-29T09:57:30;16.63;;;6.85;;
23782;SDS011;12071;50.850;4.446;2022-10-29T09:59:59;20.60;;;7.30;;
23782;SDS011;12071;50.850;4.446;2022-10-29T10:05:05;16.30;;;6.50;;
23782;SDS011;12071;50.850;4.446;2022-10-29T10:07:37;16.88;;;5.60;;
23782;SDS011;12071;50.850;4.446;2022-10-29T10:10:04;20.92;;;5.88;;
23782;SDS011;12071;50.850;4.446;2022-10-29T10:15:05;17.98;;;5.43;;
23782;SDS011;12071;50.850;4.446;2022-10-29T10:20:26;13.18;;;5.03;;
23782;SDS011;12071;50.850;4.446;2022-10-29T10:22:55;20.30;;;5.97;;
23782;SDS011;12071;50.850;4.446;2022-10-29T10:25:29;19.15;;;6.22;;
23782;SDS011;12071;50.850;4.446;2022-10-29T10:27:57;14.45;;;5.38;;
23782;SDS011;12071;50.850;4.446;2022-10-29T10:30:26;19.30;;;5.18;;
23782;SDS011;12071;50.850;4.446;2022-10-29T10:32:52;11.07;;;4.45;;
23782;SDS011;12071;50.850;4.446;2022-10-29T10:35:28;17.63;;;5.05;;
23782;SDS011;12071;50.850;4.446;2022-10-29T10:37:54;14.02;;;4.70;;
23782;SDS011;12071;50.850;4.446;2022-10-29T10:40:23;22.25;;;4.88;;
23782;SDS011;12071;50.850;4.446;2022-10-29T10:42:50;16.02;;;4.40;;
23782;SDS011;12071;50.850;4.446;2022-10-29T10:45:22;14.25;;;4.40;;
23782;SDS011;12071;50.850;4.446;2022-10-29T10:47:52;17.13;;;4.55;;
23782;SDS011;12071;50.850;4.446;2022-10-29T10:50:31;16.93;;;4.20;;
23782;SDS011;12071;50.850;4.446;2022-10-29T10:53:02;12.80;;;3.83;;
23782;SDS011;12071;50.850;4.446;2022-10-29T10:55:52;16.63;;;4.10;;
23782;SDS011;12071;50.850;4.446;2022-10-29T10:58:41;15.57;;;4.35;;
23782;SDS011;12071;50.850;4.446;2022-10-29T11:01:20;16.17;;;5.20;;
23782;SDS011;12071;50.850;4.446;2022-10-29T11:03:57;12.23;;;4.82;;
23782;SDS011;12071;50.850;4.446;2022-10-29T11:06:44;18.50;;;5.53;;
23782;SDS011;12071;50.850;4.446;2022-10-29T11:17:20;17.52;;;4.10;;
23782;SDS011;12071;50.850;4.446;2022-10-29T11:19:52;16.25;;;4.30;;
23782;SDS011;12071;50.850;4.446;2022-10-29T11:27:46;18.25;;;4.95;;
23782;SDS011;12071;50.850;4.446;2022-10-29T11:30:22;16.13;;;4.40;;
23782;SDS011;12071;50.850;4.446;2022-10-29T11:35:56;14.88;;;4.65;;
23782;SDS011;12071;50.850;4.446;2022-10-29T11:41:22;10.18;;;4.35;;
23782;SDS011;12071;50.850;4.446;2022-10-29T11:43:55;11.23;;;4.63;;
23782;SDS011;12071;50.850;4.446;2022-10-29T11:46:24;15.73;;;4.53;;
23782;SDS011;12071;50.850;4.446;2022-10-29T11:52:07;19.45;;;4.80;;
23782;SDS011;12071;50.850;4.446;2022-10-29T11:55:10;15.77;;;4.78;;
23782;SDS011;12071;50.850;4.446;2022-10-29T12:00:15;16.30;;;4.75;;
23782;SDS011;12071;50.850;4.446;2022-10-29T12:05:35;18.98;;;4.22;;
23782;SDS011;12071;50.850;4.446;2022-10-29T12:11:12;15.90;;;4.65;;
23782;SDS011;12071;50.850;4.446;2022-10-29T12:25:03;11.40;;;4.05;;
23782;SDS011;12071;50.850;4.446;2022-10-29T12:27:58;11.73;;;3.80;;
23782;SDS011;12071;50.850;4.446;2022-10-29T12:33:30;14.73;;;3.85;;
23782;SDS011;12071;50.850;4.446;2022-10-29T12:39:02;18.98;;;4.22;;
23782;SDS011;12071;50.850;4.446;2022-10-29T12:41:36;14.48;;;4.22;;
23782;SDS011;12071;50.850;4.446;2022-10-29T12:44:08;12.77;;;4.03;;
23782;SDS011;12071;50.850;4.446;2022-10-29T12:46:46;16.35;;;4.60;;
23782;SDS011;12071;50.850;4.446;2022-10-29T12:49:47;17.23;;;4.20;;
23782;SDS011;12071;50.850;4.446;2022-10-29T12:55:03;19.23;;;4.70;;
23782;SDS011;12071;50.850;4.446;2022-10-29T12:57:32;14.73;;;4.20;;
23782;SDS011;12071;50.850;4.446;2022-10-29T13:02:46;12.05;;;3.97;;
23782;SDS011;12071;50.850;4.446;2022-10-29T13:05:15;13.13;;;4.35;;
23782;SDS011;12071;50.850;4.446;2022-10-29T13:15:26;13.85;;;3.95;;
23782;SDS011;12071;50.850;4.446;2022-10-29T13:17:55;17.25;;;5.40;;
23782;SDS011;12071;50.850;4.446;2022-10-29T13:20:25;13.93;;;4.78;;
23782;SDS011;12071;50.850;4.446;2022-10-29T13:23:01;16.58;;;4.10;;
23782;SDS011;12071;50.850;4.446;2022-10-29T13:30:37;11.35;;;3.30;;
23782;SDS011;12071;50.850;4.446;2022-10-29T13:38:17;12.98;;;3.30;;
23782;SDS011;12071;50.850;4.446;2022-10-29T13:43:56;11.55;;;3.53;;
23782;SDS011;12071;50.850;4.446;2022-10-29T13:46:44;16.48;;;3.92;;
23782;SDS011;12071;50.850;4.446;2022-10-29T13:49:32;12.48;;;3.60;;
23782;SDS011;12071;50.850;4.446;2022-10-29T13:52:20;15.68;;;3.80;;
23782;SDS011;12071;50.850;4.446;2022-10-29T13:54:49;9.80;;;3.97;;
23782;SDS011;12071;50.850;4.446;2022-10-29T13:57:22;11.40;;;3.97;;
23782;SDS011;12071;50.850;4.446;2022-10-29T14:07:54;16.38;;;3.70;;
23782;SDS011;12071;50.850;4.446;2022-10-29T14:10:23;13.75;;;3.90;;
23782;SDS011;12071;50.850;4.446;2022-10-29T14:15:59;16.77;;;3.72;;
23782;SDS011;12071;50.850;4.446;2022-10-29T14:18:26;11.73;;;3.42;;
23782;SDS011;12071;50.850;4.446;2022-10-29T14:20:59;10.73;;;3.60;;
23782;SDS011;12071;50.850;4.446;2022-10-29T14:23:26;11.63;;;3.42;;
23782;SDS011;12071;50.850;4.446;2022-10-29T14:25:57;13.38;;;3.33;;
23782;SDS011;12071;50.850;4.446;2022-10-29T14:31:06;15.27;;;3.58;;
23782;SDS011;12071;50.850;4.446;2022-10-29T14:33:37;13.57;;;3.58;;
23782;SDS011;12071;50.850;4.446;2022-10-29T14:41:46;22.20;;;3.90;;
23782;SDS011;12071;50.850;4.446;2022-10-29T14:44:30;10.82;;;3.58;;
23782;SDS011;12071;50.850;4.446;2022-10-29T14:47:00;15.27;;;3.50;;
23782;SDS011;12071;50.850;4.446;2022-10-29T14:49:31;9.32;;;3.78;;
23782;SDS011;12071;50.850;4.446;2022-10-29T14:52:03;14.85;;;3.65;;
23782;SDS011;12071;50.850;4.446;2022-10-29T14:54:35;13.45;;;3.53;;
23782;SDS011;12071;50.850;4.446;2022-10-29T14:57:05;11.10;;;3.35;;
23782;SDS011;12071;50.850;4.446;2022-10-29T14:59:37;19.08;;;3.67;;
23782;SDS011;12071;50.850;4.446;2022-10-29T15:02:10;14.75;;;4.00;;
23782;SDS011;12071;50.850;4.446;2022-10-29T15:04:44;12.88;;;3.75;;
23782;SDS011;12071;50.850;4.446;2022-10-29T15:07:14;14.45;;;3.53;;
23782;SDS011;12071;50.850;4.446;2022-10-29T15:10:53;13.35;;;3.67;;
23782;SDS011;12071;50.850;4.446;2022-10-29T15:12:48;10.40;;;3.90;;
23782;SDS011;12071;50.850;4.446;2022-10-29T15:20:23;14.27;;;3.58;;
23782;SDS011;12071;50.850;4.446;2022-10-29T15:22:53;12.88;;;3.80;;
23782;SDS011;12071;50.850;4.446;2022-10-29T15:25:26;11.65;;;3.58;;
23782;SDS011;12071;50.850;4.446;2022-10-29T15:27:52;15.00;;;3.85;;
23782;SDS011;12071;50.850;4.446;2022-10-29T15:30:21;13.20;;;4.07;;
23782;SDS011;12071;50.850;4.446;2022-10-29T15:32:58;10.52;;;3.60;;
23782;SDS011;12071;50.850;4.446;2022-10-29T15:35:25;10.98;;;3.80;;
23782;SDS011;12071;50.850;4.446;2022-10-29T15:37:52;15.60;;;4.45;;
23782;SDS011;12071;50.850;4.446;2022-10-29T15:40:21;12.75;;;3.75;;
23782;SDS011;12071;50.850;4.446;2022-10-29T15:42:48;13.27;;;4.05;;
23782;SDS011;12071;50.850;4.446;2022-10-29T15:47:46;14.20;;;4.45;;
23782;SDS011;12071;50.850;4.446;2022-10-29T15:50:17;12.35;;;4.07;;
23782;SDS011;12071;50.850;4.446;2022-10-29T15:52:51;12.27;;;3.78;;
23782;SDS011;12071;50.850;4.446;2022-10-29T15:57:53;13.63;;;3.63;;
23782;SDS011;12071;50.850;4.446;2022-10-29T16:00:23;15.87;;;3.80;;
23782;SDS011;12071;50.850;4.446;2022-10-29T16:02:49;12.95;;;4.68;;
23782;SDS011;12071;50.850;4.446;2022-10-29T16:05:15;10.57;;;4.45;;
23782;SDS011;12071;50.850;4.446;2022-10-29T16:07:41;13.27;;;3.85;;
23782;SDS011;12071;50.850;4.446;2022-10-29T16:10:15;13.98;;;3.90;;
23782;SDS011;12071;50.850;4.446;2022-10-29T16:12:45;13.55;;;3.83;;
23782;SDS011;12071;50.850;4.446;2022-10-29T16:15:17;14.18;;;3.83;;
23782;SDS011;12071;50.850;4.446;2022-10-29T16:17:43;15.52;;;4.22;;
23782;SDS011;12071;50.850;4.446;2022-10-29T16:20:14;12.77;;;4.00;;
23782;SDS011;12071;50.850;4.446;2022-10-29T16:22:40;15.65;;;3.90;;
23782;SDS011;12071;50.850;4.446;2022-10-29T16:25:14;11.50;;;3.70;;
23782;SDS011;12071;50.850;4.446;2022-10-29T16:27:43;7.63;;;4.03;;
23782;SDS011;12071;50.850;4.446;2022-10-29T16:30:09;12.20;;;4.35;;
23782;SDS011;12071;50.850;4.446;2022-10-29T16:32:35;12.20;;;4.30;;
23782;SDS011;12071;50.850;4.446;2022-10-29T16:35:02;14.57;;;4.38;;
23782;SDS011;12071;50.850;4.446;2022-10-29T16:37:27;10.18;;;4.25;;
23782;SDS011;12071;50.850;4.446;2022-10-29T16:39:53;14.13;;;5.50;;
23782;SDS011;12071;50.850;4.446;2022-10-29T16:42:32;12.07;;;4.93;;
23782;SDS011;12071;50.850;4.446;2022-10-29T16:44:59;13.45;;;4.68;;
23782;SDS011;12071;50.850;4.446;2022-10-29T16:47:25;16.23;;;4.95;;
23782;SDS011;12071;50.850;4.446;2022-10-29T16:49:51;13.40;;;4.68;;
23782;SDS011;12071;50.850;4.446;2022-10-29T16:52:17;16.95;;;5.28;;
23782;SDS011;12071;50.850;4.446;2022-10-29T16:54:42;11.05;;;4.72;;
23782;SDS011;12071;50.850;4.446;2022-10-29T16:57:08;15.88;;;4.90;;
23782;SDS011;12071;50.850;4.446;2022-10-29T16:59:34;16.05;;;5.03;;
23782;SDS011;12071;50.850;4.446;2022-10-29T17:02:00;17.02;;;5.10;;
23782;SDS011;12071;50.850;4.446;2022-10-29T17:04:25;10.50;;;4.30;;
23782;SDS011;12071;50.850;4.446;2022-10-29T17:06:51;15.68;;;5.07;;
23782;SDS011;12071;50.850;4.446;2022-10-29T17:09:16;10.55;;;4.65;;
23782;SDS011;12071;50.850;4.446;2022-10-29T17:11:42;15.05;;;4.43;;
23782;SDS011;12071;50.850;4.446;2022-10-29T17:14:08;18.23;;;5.30;;
23782;SDS011;12071;50.850;4.446;2022-10-29T17:16:33;16.13;;;4.63;;
23782;SDS011;12071;50.850;4.446;2022-10-29T17:18:59;16.55;;;5.28;;
23782;SDS011;12071;50.850;4.446;2022-10-29T17:21:24;11.98;;;4.80;;
23782;SDS011;12071;50.850;4.446;2022-10-29T17:23:50;19.30;;;5.82;;
23782;SDS011;12071;50.850;4.446;2022-10-29T17:26:15;19.10;;;4.97;;
23782;SDS011;12071;50.850;4.446;2022-10-29T17:28:41;18.58;;;5.20;;
23782;SDS011;12071;50.850;4.446;2022-10-29T17:31:07;12.63;;;4.50;;
23782;SDS011;12071;50.850;4.446;2022-10-29T17:33:33;14.70;;;5.05;;
23782;SDS011;12071;50.850;4.446;2022-10-29T17:36:00;18.15;;;4.22;;
23782;SDS011;12071;50.850;4.446;2022-10-29T17:38:27;14.48;;;3.80;;